This is the latest recevied weather packets stored in our database for station/object N1TKS. If no packets are shown the sender has not sent any weather packets the latest 10 day(s).
| Time | Temp. | Humidity | Pressure | Rain* | Wind** | Luminosity | Snow |
|---|---|---|---|---|---|---|---|
| 1777678615 | 12.78° C | 68% | 1011.4 hPa | 0 mm | - | - | - |
| 1777678316 | 13.33° C | 68% | 1011.4 hPa | 0 mm | - | - | - |
| 1777678211 | 13.33° C | 65% | 1011.2 hPa | 0 mm | - | - | - |
| 1777677714 | 13.33° C | 66% | 1011.3 hPa | 0 mm | - | - | - |
| 1777677415 | 13.33° C | 66% | 1011.2 hPa | 0 mm | - | - | - |
| 1777677114 | 13.33° C | 65% | 1011.2 hPa | 0 mm | - | - | - |
| 1777676813 | 13.33° C | 64% | 1011.2 hPa | 0 mm | - | - | - |
| 1777676514 | 13.89° C | 64% | 1011.1 hPa | 0 mm | - | - | - |
| 1777676295 | 14.44° C | 60% | 1010.9 hPa | 0 mm | - | - | - |
| 1777676286 | 14.44° C | 60% | 1010.9 hPa | 0 mm | - | - | - |
| 1777676277 | 14.44° C | 60% | 1011 hPa | 0 mm | - | - | - |
| 1777676213 | 13.89° C | 63% | 1011.1 hPa | 0 mm | - | - | - |
| 1777675917 | 13.89° C | 62% | 1011 hPa | 0 mm | - | - | - |
| 1777675614 | 14.44° C | 62% | 1011 hPa | 0 mm | - | - | - |
| 1777675315 | 14.44° C | 61% | 1011.1 hPa | 0 mm | - | - | - |
| 1777675014 | 14.44° C | 60% | 1010.9 hPa | 0 mm | - | - | - |
| 1777674714 | 14.44° C | 60% | 1010.9 hPa | 0 mm | - | - | - |
| 1777674414 | 14.44° C | 60% | 1011 hPa | 0 mm | - | - | - |
| 1777674378 | 15.56° C | 55% | 1011 hPa | 0 mm | - | - | - |
| 1777674119 | 15° C | 59% | 1011 hPa | 0 mm | - | - | - |
| 1777673517 | 15° C | 56% | 1011.1 hPa | 0 mm | - | - | - |
| 1777672614 | 15.56° C | 55% | 1011 hPa | 0 mm | - | - | - |
| 1777672450 | 16.11° C | 52% | 1010.6 hPa | 0 mm | - | - | - |
| 1777672444 | 16.11° C | 52% | 1010.5 hPa | 0 mm | - | - | - |
| 1777672319 | 15.56° C | 55% | 1011 hPa | 0 mm | - | - | - |
* Rain latest hour (hover to see other rain measurements)
** Current wind speed in m/s (hover to see current wind gust speed)